createdAt,value
2024-01-20T00:00:46.061Z,98257.69
2024-01-20T00:03:13.185Z,98262.45
2024-01-20T00:05:40.572Z,98262.79
2024-01-20T00:08:07.972Z,98265.66
2024-01-20T00:10:35.350Z,98267.03
2024-01-20T00:13:04.386Z,98268.24
2024-01-20T00:15:31.653Z,98269.45
2024-01-20T00:17:58.893Z,98272.86
2024-01-20T00:20:26.339Z,98271.67
2024-01-20T00:22:53.818Z,98271.48
2024-01-20T00:25:22.348Z,98278.64
2024-01-20T00:27:52.299Z,98274.06
2024-01-20T00:30:22.555Z,98281.03
2024-01-20T00:32:50.219Z,98280.86
2024-01-20T00:35:17.631Z,98280.70
2024-01-20T00:37:44.895Z,98280.01
2024-01-20T00:40:12.758Z,98282.67
2024-01-20T00:42:39.986Z,98283.85
2024-01-20T00:45:08.149Z,98285.02
2024-01-20T00:47:37.769Z,98286.20
2024-01-20T00:50:07.443Z,98291.65
2024-01-20T00:52:34.646Z,98287.59
2024-01-20T00:55:01.884Z,98290.45
2024-01-20T00:57:29.012Z,98298.41
2024-01-20T00:59:57.528Z,98299.73
2024-01-20T01:02:26.861Z,98298.23
2024-01-20T01:04:57.226Z,98299.24
2024-01-20T01:07:24.471Z,98297.90
2024-01-20T01:09:52.216Z,98298.27
2024-01-20T01:12:19.598Z,98297.27
2024-01-20T01:14:46.724Z,98298.66
2024-01-20T01:17:13.936Z,98302.11
2024-01-20T01:19:41.379Z,98304.31
2024-01-20T01:22:09.021Z,98306.02
2024-01-20T01:24:36.257Z,98304.31
2024-01-20T01:27:03.389Z,98304.33
2024-01-20T01:29:32.914Z,98306.54
2024-01-20T01:32:00.433Z,98301.42
2024-01-20T01:34:27.708Z,98305.48
2024-01-20T01:36:55.108Z,98301.90
2024-01-20T01:39:22.806Z,98295.09
2024-01-20T01:41:50.382Z,98293.71
2024-01-20T01:44:17.612Z,98299.67
2024-01-20T01:46:45.368Z,98297.80
2024-01-20T01:49:12.790Z,98299.71
2024-01-20T01:51:40.450Z,98298.70
2024-01-20T01:54:10.244Z,98299.41
2024-01-20T01:56:37.839Z,98302.48
2024-01-20T01:59:05.109Z,98301.69
2024-01-20T02:04:20.779Z,98308.44
2024-01-20T02:06:58.474Z,98311.20
2024-01-20T02:09:36.577Z,98310.05
2024-01-20T02:12:11.561Z,98307.92
2024-01-20T02:14:44.141Z,98317.48
2024-01-20T02:17:14.510Z,98320.91
2024-01-20T02:19:42.649Z,98326.37
2024-01-20T02:22:20.899Z,98325.05
2024-01-20T02:24:50.380Z,98324.27
2024-01-20T02:27:37.623Z,98323.84
2024-01-20T02:30:08.269Z,98320.86
2024-01-20T02:32:36.005Z,98321.42
2024-01-20T02:35:04.923Z,98319.08
2024-01-20T02:37:33.239Z,98324.02
2024-01-20T02:40:20.478Z,98325.54
2024-01-20T02:42:56.700Z,98328.79
2024-01-20T02:45:25.003Z,98324.55
2024-01-20T02:47:56.209Z,98322.76
2024-01-20T02:50:26.228Z,98321.42
2024-01-20T02:52:56.032Z,98329.73
2024-01-20T02:58:24.333Z,98329.15
2024-01-20T03:00:56.299Z,98332.10
2024-01-20T03:03:26.415Z,98331.80
2024-01-20T03:06:35.614Z,98328.64
2024-01-20T03:09:07.318Z,98334.43
2024-01-20T03:11:39.528Z,98332.91
2024-01-20T03:14:27.253Z,98339.55
2024-01-20T03:17:17.291Z,98346.36
2024-01-20T03:20:05.650Z,98348.58
2024-01-20T03:22:44.474Z,98344.85
2024-01-20T03:25:32.644Z,98344.55
2024-01-20T03:28:03.419Z,98352.02
2024-01-20T03:30:36.818Z,98351.86
2024-01-20T03:33:04.889Z,98354.44
2024-01-20T03:35:37.037Z,98349.89
2024-01-20T03:38:05.531Z,98353.77
2024-01-20T03:40:58.686Z,98341.92
2024-01-20T03:43:48.135Z,98351.61
2024-01-20T03:46:47.698Z,98350.25
2024-01-20T03:49:41.189Z,98353.31
2024-01-20T03:52:18.418Z,98356.37
2024-01-20T03:55:25.490Z,98351.29
2024-01-20T03:57:57.393Z,98361.11
2024-01-20T04:00:27.633Z,98357.20
2024-01-20T04:03:36.303Z,98355.52
2024-01-20T04:06:57.099Z,98357.89
2024-01-20T04:10:09.781Z,98359.06
2024-01-20T04:13:05.339Z,98355.54
2024-01-20T04:16:15.086Z,98354.36
2024-01-20T04:18:44.789Z,98357.75
2024-01-20T04:21:38.499Z,98359.44
2024-01-20T04:24:52.506Z,98363.16
2024-01-20T04:28:00.402Z,98366.71
2024-01-20T04:30:55.708Z,98370.27
2024-01-20T04:34:14.406Z,98376.52
2024-01-20T04:37:31.191Z,98380.92
2024-01-20T04:40:38.357Z,98375.85
2024-01-20T04:43:57.623Z,98386.68
2024-01-20T04:47:08.837Z,98386.85
2024-01-20T04:50:19.781Z,98381.27
2024-01-20T04:53:36.151Z,98380.09
2024-01-20T04:57:05.958Z,98384.48
2024-01-20T05:00:22.685Z,98394.80
2024-01-20T05:03:49.879Z,98397.84
2024-01-20T05:07:16.876Z,98390.91
2024-01-20T05:10:46.169Z,98397.50
2024-01-20T05:14:13.002Z,98402.07
2024-01-20T05:17:41.195Z,98409.98
2024-01-20T05:21:28.459Z,98416.10
2024-01-20T05:25:15.325Z,98424.23
2024-01-20T05:28:45.661Z,98430.84
2024-01-20T05:32:12.609Z,98432.84
2024-01-20T05:35:39.398Z,98432.34
2024-01-20T05:39:26.294Z,98430.48
2024-01-20T05:43:12.952Z,98428.11
2024-01-20T05:46:59.966Z,98429.14
2024-01-20T05:50:27.646Z,98434.25
2024-01-20T05:53:54.993Z,98431.70
2024-01-20T05:57:28.842Z,98444.06
2024-01-20T06:01:16.305Z,98445.09
2024-01-20T06:04:27.685Z,98449.30
2024-01-20T06:07:54.626Z,98444.56
2024-01-20T06:11:41.486Z,98443.88
2024-01-20T06:15:28.363Z,98442.88
2024-01-20T06:19:00.121Z,98448.47
2024-01-20T06:22:46.791Z,98453.88
2024-01-20T06:25:57.942Z,98452.01
2024-01-20T06:29:25.006Z,98452.34
2024-01-20T06:33:11.947Z,98465.55
2024-01-20T06:36:39.338Z,98457.06
2024-01-20T06:40:06.970Z,98459.42
2024-01-20T06:43:34.530Z,98459.95
2024-01-20T06:46:41.707Z,98462.14
2024-01-20T06:50:28.633Z,98458.58
2024-01-20T06:54:13.114Z,98461.61
2024-01-20T06:58:00.896Z,98459.56
2024-01-20T07:01:47.990Z,98472.42
2024-01-20T07:05:15.393Z,98474.79
2024-01-20T07:09:02.229Z,98475.79
2024-01-20T07:12:49.096Z,98474.24
2024-01-20T07:16:35.958Z,98474.77
2024-01-20T07:20:22.687Z,98474.57
2024-01-20T07:24:09.543Z,98486.92
2024-01-20T07:27:56.666Z,98494.02
2024-01-20T07:31:39.176Z,98498.23
2024-01-20T07:35:26.263Z,98510.25
2024-01-20T07:39:13.150Z,98505.64
2024-01-20T07:42:45.482Z,98504.77
2024-01-20T07:46:35.241Z,98503.08
2024-01-20T07:50:11.879Z,98507.95
2024-01-20T07:53:58.769Z,98516.05
2024-01-20T07:57:26.171Z,98507.52
2024-01-20T08:01:13.459Z,98495.23
2024-01-20T08:05:00.253Z,98489.94
2024-01-20T08:08:40.386Z,98497.88
2024-01-20T08:12:21.652Z,98513.77
2024-01-20T08:15:49.281Z,98514.23
2024-01-20T08:19:36.476Z,98522.48
2024-01-20T08:23:23.376Z,98517.70
2024-01-20T08:26:58.726Z,98523.63
2024-01-20T08:30:27.120Z,98523.21
2024-01-20T08:34:14.352Z,98527.73
2024-01-20T08:37:41.966Z,98525.69
2024-01-20T08:41:13.116Z,98543.87
2024-01-20T08:44:59.990Z,98542.67
2024-01-20T09:07:03.975Z,98573.36
2024-01-20T09:10:31.927Z,98580.29
2024-01-20T09:14:19.388Z,98578.20
2024-01-20T09:18:06.816Z,98586.27
2024-01-20T09:21:57.346Z,98590.64
2024-01-20T09:25:44.464Z,98588.19
2024-01-20T09:29:33.848Z,98588.83
2024-01-20T09:33:01.871Z,98591.03
2024-01-20T09:36:51.126Z,98584.20
2024-01-20T09:40:44.554Z,98581.73
2024-01-20T10:02:58.544Z,98579.86
2024-01-20T10:05:32.484Z,98579.15
2024-01-20T10:07:59.740Z,98582.01
2024-01-20T10:10:26.959Z,98577.06
2024-01-20T10:13:02.576Z,98577.89
2024-01-20T10:15:34.475Z,98574.69
2024-01-20T10:18:10.393Z,98574.36
2024-01-20T10:20:38.773Z,98576.18
2024-01-20T10:23:07.702Z,98582.10
2024-01-20T10:25:34.998Z,98580.54
2024-01-20T10:28:02.160Z,98582.23
2024-01-20T10:30:30.571Z,98576.09
2024-01-20T10:33:08.899Z,98571.15
2024-01-20T10:35:38.206Z,98572.85
2024-01-20T10:38:12.488Z,98571.56
2024-01-20T10:40:43.470Z,98572.81
2024-01-20T10:43:17.661Z,98576.98
2024-01-20T10:46:00.041Z,98577.27
2024-01-20T11:16:19.767Z,98540.63
2024-01-20T21:09:15.366Z,98898.91
2024-01-20T21:13:04.317Z,98902.33
2024-01-20T21:16:51.773Z,98901.14
2024-01-20T21:20:41.973Z,98906.42
2024-01-20T21:24:29.153Z,98912.89
2024-01-20T21:28:17.863Z,98918.02
2024-01-20T21:32:07.543Z,98916.65
2024-01-20T21:35:53.341Z,98916.50
2024-01-20T21:39:40.616Z,98920.92
2024-01-20T21:43:29.048Z,98923.14
2024-01-20T21:47:20.120Z,98923.50
2024-01-20T21:50:45.117Z,98929.63
2024-01-20T21:53:12.186Z,98927.77
2024-01-20T21:55:38.934Z,98933.21
2024-01-20T21:58:05.471Z,98938.15
2024-01-20T22:00:32.074Z,98940.36
2024-01-20T22:02:58.714Z,98945.81
2024-01-20T22:05:25.501Z,98944.45
2024-01-20T22:07:54.563Z,98947.02
2024-01-20T22:10:20.969Z,98948.03
2024-01-20T22:12:47.791Z,98945.66
2024-01-20T22:15:14.609Z,98950.92
2024-01-20T22:17:41.482Z,98955.52
2024-01-20T22:20:09.310Z,98958.41
2024-01-20T22:22:35.980Z,98957.38
2024-01-20T22:25:02.489Z,98964.36
2024-01-20T22:27:29.016Z,98969.82
2024-01-20T22:29:55.689Z,98973.39
2024-01-20T22:32:22.176Z,98973.73
2024-01-20T22:34:48.824Z,98974.91
2024-01-20T22:37:15.383Z,98980.36
2024-01-20T22:39:41.935Z,98981.20
2024-01-20T22:42:08.425Z,98980.70
2024-01-20T22:44:35.184Z,98981.55
2024-01-20T22:47:01.979Z,98985.29
2024-01-20T22:49:30.652Z,98988.69
2024-01-20T22:51:57.302Z,98994.65
2024-01-20T22:54:26.320Z,98998.89
2024-01-20T22:56:52.869Z,98997.19
2024-01-20T22:59:19.495Z,98996.00
2024-01-20T23:01:45.997Z,98993.61
2024-01-20T23:04:16.882Z,98992.59
2024-01-20T23:06:46.213Z,98999.56
2024-01-20T23:09:12.746Z,99000.95
2024-01-20T23:11:39.748Z,99002.14
2024-01-20T23:14:06.253Z,99001.80
2024-01-20T23:16:32.786Z,99004.35
2024-01-20T23:18:59.750Z,98999.59
2024-01-20T23:21:26.484Z,99000.10
2024-01-20T23:23:53.150Z,98995.33
2024-01-20T23:26:19.597Z,98989.38
2024-01-20T23:28:46.127Z,98984.77
2024-01-20T23:31:12.654Z,98987.67
2024-01-20T23:33:39.676Z,98988.52
2024-01-20T23:36:06.866Z,98991.59
2024-01-20T23:38:33.427Z,98995.34
2024-01-20T23:41:00.073Z,98999.76
2024-01-20T23:43:27.185Z,99002.13
2024-01-20T23:45:53.851Z,99003.64
2024-01-20T23:48:20.420Z,99009.62
2024-01-20T23:50:47.284Z,99013.36
2024-01-20T23:53:13.822Z,99015.73
2024-01-20T23:55:40.328Z,99016.60
2024-01-20T23:58:06.777Z,99015.40
